createdAt,value
2019-02-23T00:01:33.141Z,12.82
2019-02-23T00:04:04.520Z,12.67
2019-02-23T00:06:34.291Z,12.83
2019-02-23T00:09:06.988Z,11.40
2019-02-23T00:11:38.968Z,10.73
2019-02-23T00:14:08.571Z,12.33
2019-02-23T00:16:42.026Z,13.30
2019-02-23T00:19:24.135Z,11.57
2019-02-23T00:21:47.527Z,13.27
2019-02-23T00:24:17.770Z,13.93
2019-02-23T00:26:48.074Z,17.13
2019-02-23T00:29:17.690Z,17.37
2019-02-23T00:31:48.626Z,19.37
2019-02-23T00:34:20.210Z,18.27
2019-02-23T00:36:50.562Z,20.00
2019-02-23T00:39:20.233Z,19.05
2019-02-23T00:41:53.666Z,17.77
2019-02-23T00:44:24.267Z,19.27
2019-02-23T00:46:56.236Z,17.20
2019-02-23T00:49:35.801Z,17.27
2019-02-23T00:51:59.158Z,18.73
2019-02-23T00:54:30.534Z,16.37
2019-02-23T00:57:00.163Z,15.40
2019-02-23T00:59:30.282Z,14.57
2019-02-23T01:02:01.623Z,14.83
2019-02-23T01:04:32.240Z,15.90
2019-02-23T01:07:02.957Z,15.67
2019-02-23T01:09:34.564Z,16.10
2019-02-23T01:12:05.566Z,16.93
2019-02-23T01:14:35.846Z,15.87
2019-02-23T01:17:07.909Z,16.10
2019-02-23T01:19:47.364Z,16.00
2019-02-23T01:22:12.092Z,16.60
2019-02-23T01:24:43.991Z,16.90
2019-02-23T01:27:17.098Z,16.03
2019-02-23T01:29:48.043Z,17.17
2019-02-23T01:32:18.853Z,17.77
2019-02-23T01:34:49.211Z,16.70
2019-02-23T01:37:21.575Z,16.93
2019-02-23T01:39:52.537Z,16.47
2019-02-23T01:42:22.403Z,17.57
2019-02-23T01:44:53.204Z,17.27
2019-02-23T01:47:24.161Z,15.93
2019-02-23T01:49:58.978Z,15.43
2019-02-23T01:52:28.148Z,16.50
2019-02-23T01:54:59.921Z,16.20
2019-02-23T01:57:30.827Z,16.57
2019-02-23T02:00:02.551Z,16.27
2019-02-23T02:02:34.603Z,15.90
2019-02-23T02:05:05.879Z,17.57
2019-02-23T02:07:35.502Z,17.97
2019-02-23T02:10:09.526Z,17.00
2019-02-23T02:12:42.460Z,17.67
2019-02-23T02:15:18.702Z,17.77
2019-02-23T02:17:49.946Z,17.03
2019-02-23T02:20:22.194Z,16.70
2019-02-23T02:22:52.882Z,15.70
2019-02-23T02:25:23.344Z,16.30
2019-02-23T02:27:55.181Z,16.33
2019-02-23T02:30:25.844Z,17.17
2019-02-23T02:32:56.595Z,16.10
2019-02-23T02:35:27.945Z,17.20
2019-02-23T02:37:58.288Z,18.17
2019-02-23T02:40:28.111Z,19.37
2019-02-23T02:42:59.185Z,18.52
2019-02-23T02:45:28.958Z,20.13
2019-02-23T02:48:00.318Z,19.73
2019-02-23T02:50:32.406Z,19.77
2019-02-23T02:53:03.463Z,21.40
2019-02-23T02:55:34.807Z,21.30
2019-02-23T02:58:04.571Z,20.33
2019-02-23T03:00:36.425Z,19.67
2019-02-23T03:03:09.580Z,19.70
2019-02-23T03:05:39.308Z,21.20
2019-02-23T03:08:13.574Z,19.37
2019-02-23T03:10:45.330Z,17.27
2019-02-23T03:13:17.264Z,17.23
2019-02-23T03:15:48.763Z,17.27
2019-02-23T03:18:19.443Z,19.40
2019-02-23T03:20:50.357Z,18.67
2019-02-23T03:23:20.826Z,19.20
2019-02-23T03:25:52.896Z,16.77
2019-02-23T03:28:25.688Z,17.60
2019-02-23T03:30:55.814Z,16.63
2019-02-23T03:33:27.771Z,15.97
2019-02-23T03:35:57.315Z,15.53
2019-02-23T03:38:27.538Z,15.50
2019-02-23T03:40:58.061Z,16.40
2019-02-23T03:43:29.039Z,16.27
2019-02-23T03:45:59.508Z,16.43
2019-02-23T03:48:29.828Z,16.77
2019-02-23T03:51:01.991Z,18.40
2019-02-23T03:53:34.190Z,20.23
2019-02-23T03:56:03.563Z,19.60
2019-02-23T03:58:34.962Z,22.73
2019-02-23T04:01:05.749Z,21.57
2019-02-23T04:03:37.923Z,21.17
2019-02-23T04:06:08.659Z,22.03
2019-02-23T04:08:40.391Z,21.50
2019-02-23T04:11:10.879Z,20.53
2019-02-23T04:13:42.639Z,21.77
2019-02-23T04:16:14.543Z,18.80
2019-02-23T04:18:46.650Z,21.20
2019-02-23T04:21:18.043Z,21.30
2019-02-23T04:23:48.859Z,21.73
2019-02-23T04:26:19.674Z,20.27
2019-02-23T04:28:51.296Z,20.13
2019-02-23T04:31:21.510Z,19.27
2019-02-23T04:33:53.175Z,19.37
2019-02-23T04:36:44.029Z,20.30
2019-02-23T04:39:14.799Z,20.93
2019-02-23T04:41:45.500Z,21.30
2019-02-23T04:44:14.569Z,16.40
2019-02-23T04:46:44.859Z,17.67
2019-02-23T04:49:16.323Z,17.77
2019-02-23T04:51:47.686Z,14.83
2019-02-23T04:54:18.398Z,17.90
2019-02-23T04:56:48.839Z,18.87
2019-02-23T04:59:26.211Z,22.00
2019-02-23T05:01:57.823Z,28.70
2019-02-23T05:04:29.688Z,32.73
2019-02-23T05:07:00.459Z,35.73
2019-02-23T05:09:31.886Z,43.53
2019-02-23T05:12:03.564Z,65.63
2019-02-23T05:14:34.019Z,75.33
2019-02-23T05:17:05.327Z,63.83
2019-02-23T05:19:38.233Z,54.50
2019-02-23T05:22:07.338Z,52.47
2019-02-23T05:24:39.795Z,71.63
2019-02-23T05:27:10.498Z,156.43
2019-02-23T05:30:05.814Z,146.23
2019-02-23T05:32:36.477Z,68.93
2019-02-23T05:35:08.469Z,60.80
2019-02-23T05:37:38.849Z,72.40
2019-02-23T05:40:12.930Z,70.70
2019-02-23T05:42:45.100Z,59.67
2019-02-23T05:45:16.663Z,60.97
2019-02-23T05:47:46.568Z,61.87
2019-02-23T05:50:16.791Z,54.40
2019-02-23T05:52:48.870Z,50.70
2019-02-23T05:55:21.312Z,54.33
2019-02-23T05:57:54.252Z,53.63
2019-02-23T06:00:23.399Z,48.03
2019-02-23T06:02:54.982Z,53.50
2019-02-23T06:05:24.632Z,81.63
2019-02-23T06:07:55.409Z,62.10
2019-02-23T06:10:26.345Z,57.97
2019-02-23T06:12:57.760Z,45.13
2019-02-23T06:15:28.564Z,41.03
2019-02-23T06:17:59.537Z,35.97
2019-02-23T06:20:31.596Z,26.70
2019-02-23T06:23:00.280Z,24.43
2019-02-23T06:25:31.649Z,57.30
2019-02-23T06:28:03.342Z,57.90
2019-02-23T06:30:34.739Z,40.10
2019-02-23T06:33:06.180Z,79.30
2019-02-23T06:35:35.822Z,71.23
2019-02-23T06:38:09.156Z,51.03
2019-02-23T06:40:40.481Z,45.27
2019-02-23T06:43:12.764Z,43.97
2019-02-23T06:45:45.875Z,32.63
2019-02-23T06:48:19.666Z,34.33
2019-02-23T06:50:49.573Z,35.87
2019-02-23T06:53:23.625Z,37.07
2019-02-23T06:55:59.338Z,33.67
2019-02-23T06:58:30.960Z,36.50
2019-02-23T07:01:03.554Z,35.23
2019-02-23T07:03:33.193Z,36.30
2019-02-23T07:06:02.876Z,53.30
2019-02-23T07:08:34.720Z,49.23
2019-02-23T07:11:06.243Z,46.43
2019-02-23T07:13:37.150Z,35.17
2019-02-23T07:16:07.524Z,36.00
2019-02-23T07:18:37.133Z,31.67
2019-02-23T07:21:07.330Z,33.60
2019-02-23T07:23:40.759Z,34.15
2019-02-23T07:26:14.053Z,36.80
2019-02-23T07:28:43.822Z,26.13
2019-02-23T07:31:14.075Z,77.30
2019-02-23T07:33:44.438Z,33.30
2019-02-23T07:36:15.195Z,24.33
2019-02-23T07:38:48.961Z,22.87
2019-02-23T07:41:22.392Z,22.13
2019-02-23T07:44:14.556Z,23.93
2019-02-23T07:46:46.085Z,20.20
2019-02-23T07:49:19.718Z,17.57
2019-02-23T07:51:51.162Z,16.43
2019-02-23T07:54:22.511Z,15.03
2019-02-23T07:56:55.442Z,17.37
2019-02-23T07:59:25.320Z,16.63
2019-02-23T08:01:56.783Z,15.80
2019-02-23T08:04:27.089Z,33.00
2019-02-23T08:06:58.729Z,18.00
2019-02-23T08:09:30.176Z,19.07
2019-02-23T08:12:01.432Z,17.40
2019-02-23T08:14:32.392Z,16.87
2019-02-23T08:17:02.732Z,18.67
2019-02-23T08:19:34.939Z,18.77
2019-02-23T08:22:06.235Z,33.77
2019-02-23T08:24:37.962Z,30.83
2019-02-23T08:27:08.752Z,26.40
2019-02-23T08:29:41.619Z,17.43
2019-02-23T08:32:12.008Z,17.50
2019-02-23T08:34:42.437Z,17.57
2019-02-23T08:37:16.671Z,17.60
2019-02-23T08:39:48.050Z,15.47
2019-02-23T08:42:20.052Z,14.87
2019-02-23T08:44:50.972Z,16.33
2019-02-23T08:47:21.896Z,18.37
2019-02-23T08:49:52.280Z,17.97
2019-02-23T08:52:23.819Z,19.43
2019-02-23T08:54:55.951Z,23.00
2019-02-23T08:57:30.964Z,20.40
2019-02-23T09:00:01.828Z,22.37
2019-02-23T09:02:34.020Z,19.10
2019-02-23T09:05:05.726Z,19.53
2019-02-23T09:07:36.914Z,22.37
2019-02-23T09:10:10.499Z,23.67
2019-02-23T09:12:44.484Z,20.20
2019-02-23T09:15:16.220Z,18.70
2019-02-23T09:17:48.154Z,18.23
2019-02-23T09:20:28.555Z,15.98
2019-02-23T09:22:59.729Z,9.97
2019-02-23T09:25:27.189Z,8.80
2019-02-23T09:27:58.273Z,13.03
2019-02-23T09:30:29.734Z,12.40
2019-02-23T09:32:58.740Z,15.57
2019-02-23T09:35:28.939Z,14.47
2019-02-23T09:38:00.976Z,12.95
2019-02-23T09:40:51.776Z,14.40
2019-02-23T09:43:23.687Z,15.18
2019-02-23T09:45:54.991Z,17.00
2019-02-23T09:48:26.837Z,20.83
2019-02-23T09:50:57.313Z,22.13
2019-02-23T09:53:29.539Z,17.95
2019-02-23T09:56:00.515Z,13.37
2019-02-23T09:58:31.276Z,16.47
2019-02-23T10:01:02.772Z,14.03
2019-02-23T10:03:31.451Z,14.30
2019-02-23T10:06:05.683Z,14.10
2019-02-23T10:08:36.343Z,14.77
2019-02-23T10:11:08.111Z,9.43
2019-02-23T10:13:38.251Z,11.33
2019-02-23T10:16:10.007Z,12.03
2019-02-23T10:18:41.207Z,10.63
2019-02-23T10:21:13.330Z,11.90
2019-02-23T10:23:44.995Z,12.30
2019-02-23T10:26:17.208Z,11.97
2019-02-23T10:28:49.940Z,11.50
2019-02-23T10:31:21.956Z,13.30
2019-02-23T10:33:54.066Z,13.23
2019-02-23T10:36:23.689Z,14.18
2019-02-23T10:38:55.401Z,13.13
2019-02-23T10:41:26.723Z,13.50
2019-02-23T10:43:58.395Z,15.33
2019-02-23T10:46:29.545Z,23.73
2019-02-23T10:48:59.782Z,13.37
2019-02-23T10:54:03.878Z,9.10
2019-02-23T10:56:35.794Z,23.73
2019-02-23T10:59:07.936Z,13.03
2019-02-23T11:01:39.722Z,12.80
2019-02-23T11:04:10.352Z,12.00
2019-02-23T11:06:42.540Z,12.17
2019-02-23T11:09:15.489Z,11.90
2019-02-23T11:11:48.308Z,11.97
2019-02-23T11:14:20.447Z,12.13
2019-02-23T11:16:53.944Z,10.33
2019-02-23T11:19:27.080Z,11.97
2019-02-23T11:21:57.720Z,12.97
2019-02-23T11:24:28.248Z,11.73
2019-02-23T11:26:59.639Z,11.07
2019-02-23T11:29:30.438Z,11.97
2019-02-23T11:32:00.903Z,12.60
2019-02-23T11:34:31.488Z,11.50
2019-02-23T11:37:01.901Z,11.33
2019-02-23T11:39:32.699Z,10.93
2019-02-23T11:42:03.380Z,10.07
2019-02-23T11:44:33.103Z,10.37
2019-02-23T11:47:04.670Z,9.70
2019-02-23T11:49:34.911Z,11.10
2019-02-23T11:52:05.558Z,12.67
2019-02-23T11:54:39.467Z,11.13
2019-02-23T11:57:14.438Z,9.57
2019-02-23T11:59:47.979Z,9.30
2019-02-23T12:02:19.290Z,10.87
2019-02-23T12:04:52.661Z,10.07
2019-02-23T12:07:24.428Z,9.20
2019-02-23T12:09:54.659Z,10.97
2019-02-23T12:12:28.374Z,9.13
2019-02-23T12:14:58.673Z,9.60
2019-02-23T12:17:30.008Z,9.37
2019-02-23T12:20:01.778Z,10.93
2019-02-23T12:22:34.128Z,11.27
2019-02-23T12:25:05.858Z,9.77
2019-02-23T12:27:36.804Z,9.47
2019-02-23T12:30:14.509Z,11.47
2019-02-23T12:32:46.668Z,16.27
2019-02-23T12:35:21.881Z,12.97
2019-02-23T12:37:55.727Z,12.97
2019-02-23T12:40:27.920Z,10.30
2019-02-23T12:43:10.233Z,9.37
2019-02-23T12:45:41.174Z,10.63
2019-02-23T12:48:13.339Z,10.93
2019-02-23T12:50:44.943Z,7.77
2019-02-23T12:53:16.913Z,7.87
2019-02-23T12:55:48.777Z,8.90
2019-02-23T12:58:19.727Z,8.97
2019-02-23T13:00:52.576Z,8.53
2019-02-23T13:03:23.643Z,10.60
2019-02-23T13:05:55.457Z,8.77
2019-02-23T13:08:30.168Z,8.83
2019-02-23T13:11:03.222Z,8.03
2019-02-23T13:13:40.395Z,8.40
2019-02-23T13:16:29.051Z,9.75
2019-02-23T13:19:10.458Z,12.03
2019-02-23T13:21:54.633Z,9.97
2019-02-23T13:24:55.874Z,9.60
2019-02-23T13:27:50.094Z,17.47
2019-02-23T13:33:17.442Z,10.30
2019-02-23T13:36:01.263Z,9.70
2019-02-23T13:41:59.632Z,11.60
2019-02-23T13:44:50.317Z,8.37
2019-02-23T13:47:27.119Z,8.00
2019-02-23T13:50:21.859Z,24.00
2019-02-23T13:53:01.983Z,10.23
2019-02-23T13:55:46.811Z,9.93
2019-02-23T13:58:27.957Z,9.37
2019-02-23T14:01:23.969Z,9.00
2019-02-23T14:04:27.980Z,9.63
2019-02-23T14:09:56.658Z,8.63
2019-02-23T14:12:47.257Z,10.50
2019-02-23T14:15:39.194Z,10.10
2019-02-23T14:18:18.879Z,9.73
2019-02-23T14:21:04.765Z,9.47
2019-02-23T14:23:57.548Z,10.70
2019-02-23T14:26:46.509Z,10.17
2019-02-23T14:29:44.546Z,9.27
2019-02-23T14:32:37.183Z,9.97
2019-02-23T14:35:19.610Z,12.10
2019-02-23T14:38:04.360Z,12.13
2019-02-23T14:41:05.367Z,18.50
2019-02-23T14:43:42.072Z,10.83
2019-02-23T14:46:41.644Z,13.13
2019-02-23T14:49:16.440Z,17.33
2019-02-23T14:51:52.139Z,12.40
2019-02-23T14:54:28.044Z,11.10
2019-02-23T14:57:38.277Z,14.43
2019-02-23T15:00:39.423Z,11.10
2019-02-23T15:03:22.162Z,9.83
2019-02-23T15:06:05.326Z,11.03
2019-02-23T15:08:54.926Z,12.50
2019-02-23T15:11:45.002Z,14.90
2019-02-23T15:17:31.210Z,19.00
2019-02-23T15:20:36.091Z,17.03
2019-02-23T15:23:21.158Z,15.15
2019-02-23T15:26:15.044Z,14.73
2019-02-23T15:28:55.155Z,13.33
2019-02-23T15:31:53.302Z,14.20
2019-02-23T15:34:43.340Z,12.33
2019-02-23T15:37:35.941Z,13.83
2019-02-23T15:40:25.840Z,12.50
2019-02-23T15:43:00.949Z,13.27
2019-02-23T15:45:49.054Z,12.50
2019-02-23T15:48:25.910Z,12.20
2019-02-23T15:50:56.379Z,11.97
2019-02-23T15:53:28.670Z,12.27
2019-02-23T15:55:59.854Z,11.90
2019-02-23T15:58:31.358Z,12.77
2019-02-23T16:01:02.872Z,11.73
2019-02-23T16:03:33.992Z,12.40
2019-02-23T16:06:07.977Z,11.73
2019-02-23T16:08:42.023Z,13.83
2019-02-23T16:11:14.007Z,12.80
2019-02-23T16:13:44.360Z,13.60
2019-02-23T16:16:19.811Z,14.43
2019-02-23T16:18:51.927Z,16.03
2019-02-23T16:21:22.987Z,15.67
2019-02-23T16:23:55.786Z,15.20
2019-02-23T16:26:29.079Z,15.50
2019-02-23T16:29:03.362Z,17.20
2019-02-23T16:31:33.198Z,19.20
2019-02-23T16:34:07.438Z,18.73
2019-02-23T16:36:38.427Z,18.83
2019-02-23T16:39:11.937Z,16.83
2019-02-23T16:41:43.870Z,17.03
2019-02-23T16:44:16.703Z,16.62
2019-02-23T16:46:47.174Z,19.70
2019-02-23T16:49:19.492Z,21.70
2019-02-23T16:51:50.982Z,16.97
2019-02-23T16:54:24.279Z,19.33
2019-02-23T16:56:57.254Z,25.30
2019-02-23T16:59:27.034Z,21.50
2019-02-23T17:01:58.052Z,35.35
2019-02-23T17:04:29.120Z,31.07
2019-02-23T17:07:01.383Z,52.97
2019-02-23T17:09:33.288Z,142.73
2019-02-23T17:12:06.342Z,73.87
2019-02-23T17:14:37.276Z,95.17
2019-02-23T17:17:12.789Z,86.43
2019-02-23T17:19:42.866Z,95.00
2019-02-23T17:22:13.077Z,113.60
2019-02-23T17:24:44.311Z,107.80
2019-02-23T17:27:15.558Z,105.00
2019-02-23T17:29:46.089Z,84.97
2019-02-23T17:32:18.263Z,85.30
2019-02-23T17:34:52.437Z,66.05
2019-02-23T17:37:23.867Z,52.90
2019-02-23T17:39:55.059Z,46.67
2019-02-23T17:42:28.277Z,54.17
2019-02-23T17:44:59.801Z,42.73
2019-02-23T17:47:29.934Z,27.67
2019-02-23T17:50:04.515Z,25.90
2019-02-23T17:52:36.118Z,23.73
2019-02-23T17:55:11.999Z,25.68
2019-02-23T17:57:43.908Z,20.17
2019-02-23T18:00:15.871Z,19.40
2019-02-23T18:02:47.443Z,18.90
2019-02-23T18:05:18.841Z,17.27
2019-02-23T18:07:48.527Z,16.67
2019-02-23T18:10:17.919Z,18.97
2019-02-23T18:12:47.549Z,24.80
2019-02-23T18:15:17.070Z,34.30
2019-02-23T18:17:47.364Z,28.47
2019-02-23T18:20:17.612Z,51.33
2019-02-23T18:22:47.853Z,114.93
2019-02-23T18:25:17.153Z,105.40
2019-02-23T18:27:47.570Z,84.47
2019-02-23T18:30:19.703Z,55.40
2019-02-23T18:32:52.350Z,41.13
2019-02-23T18:35:22.095Z,18.73
2019-02-23T18:37:52.596Z,19.13
2019-02-23T18:40:24.690Z,22.97
2019-02-23T18:42:58.258Z,25.03
2019-02-23T18:45:29.457Z,34.77
2019-02-23T18:48:00.289Z,29.03
2019-02-23T18:50:30.910Z,40.53
2019-02-23T18:53:07.968Z,40.80
2019-02-23T18:55:41.475Z,44.73
2019-02-23T18:58:13.204Z,46.15
2019-02-23T19:00:44.090Z,20.65
2019-02-23T19:03:15.320Z,21.17
2019-02-23T19:05:49.822Z,36.73
2019-02-23T19:08:16.391Z,32.13
2019-02-23T19:10:47.329Z,23.17
2019-02-23T19:13:17.975Z,22.17
2019-02-23T19:15:48.631Z,20.27
2019-02-23T19:18:19.352Z,18.87
2019-02-23T19:20:49.705Z,18.87
2019-02-23T19:23:21.863Z,15.63
2019-02-23T19:25:52.562Z,15.43
2019-02-23T19:28:24.972Z,15.77
2019-02-23T19:30:57.622Z,15.07
2019-02-23T19:33:27.230Z,15.23
2019-02-23T19:35:56.210Z,14.77
2019-02-23T19:38:29.759Z,15.13
2019-02-23T19:41:00.034Z,15.23
2019-02-23T19:43:31.800Z,15.27
2019-02-23T19:46:04.948Z,17.13
2019-02-23T19:48:35.218Z,17.85
2019-02-23T19:51:09.702Z,16.67
2019-02-23T19:53:40.852Z,15.37
2019-02-23T19:56:12.202Z,15.32
2019-02-23T19:58:42.744Z,16.77
2019-02-23T20:01:12.859Z,14.60
2019-02-23T20:03:43.611Z,18.50
2019-02-23T20:06:14.437Z,44.07
2019-02-23T20:08:45.778Z,37.33
2019-02-23T20:11:16.023Z,30.20
2019-02-23T20:13:47.031Z,59.40
2019-02-23T20:16:18.262Z,98.30
2019-02-23T20:18:48.804Z,75.20
2019-02-23T20:21:20.129Z,97.87
2019-02-23T20:23:51.967Z,74.03
2019-02-23T20:26:23.494Z,74.53
2019-02-23T20:28:55.879Z,73.50
2019-02-23T20:31:27.999Z,68.83
2019-02-23T20:33:59.330Z,58.10
2019-02-23T20:36:30.668Z,63.53
2019-02-23T20:39:01.729Z,59.23
2019-02-23T20:41:33.398Z,55.10
2019-02-23T20:44:03.767Z,49.10
2019-02-23T20:46:35.126Z,47.47
2019-02-23T20:49:06.377Z,46.43
2019-02-23T20:51:37.237Z,54.40
2019-02-23T20:54:08.453Z,68.37
2019-02-23T20:56:41.058Z,52.33
2019-02-23T20:59:12.311Z,51.10
2019-02-23T21:01:41.710Z,72.27
2019-02-23T21:04:12.582Z,70.47
2019-02-23T21:06:45.312Z,143.03
2019-02-23T21:09:20.265Z,164.77
2019-02-23T21:11:50.623Z,176.33
2019-02-23T21:14:23.510Z,156.30
2019-02-23T21:16:55.703Z,314.90
2019-02-23T21:19:27.603Z,240.67
2019-02-23T21:21:57.110Z,208.70
2019-02-23T21:24:27.985Z,191.63
2019-02-23T21:26:57.842Z,208.87
2019-02-23T21:29:28.589Z,263.67
2019-02-23T21:32:03.290Z,249.80
2019-02-23T21:34:33.528Z,217.83
2019-02-23T21:37:05.082Z,199.67
2019-02-23T21:39:34.799Z,186.07
2019-02-23T21:42:06.201Z,131.17
2019-02-23T21:44:36.963Z,103.57
2019-02-23T21:47:08.293Z,104.03
2019-02-23T21:49:40.176Z,123.37
2019-02-23T21:52:11.214Z,173.60
2019-02-23T21:54:43.927Z,176.37
2019-02-23T21:57:21.909Z,131.97
2019-02-23T22:00:07.825Z,102.87
2019-02-23T22:02:38.275Z,140.10
2019-02-23T22:05:12.469Z,111.50
2019-02-23T22:07:43.690Z,75.47
2019-02-23T22:10:13.243Z,56.87
2019-02-23T22:12:44.092Z,54.70
2019-02-23T22:15:14.480Z,45.03
2019-02-23T22:17:45.312Z,42.53
2019-02-23T22:20:15.982Z,42.27
2019-02-23T22:22:47.546Z,43.93
2019-02-23T22:25:18.220Z,53.10
2019-02-23T22:27:50.381Z,49.90
2019-02-23T22:30:21.985Z,133.67
2019-02-23T22:32:54.607Z,110.53
2019-02-23T22:35:26.492Z,119.63
2019-02-23T22:37:56.145Z,153.67
2019-02-23T22:40:26.798Z,193.10
2019-02-23T22:42:58.220Z,262.30
2019-02-23T22:45:29.254Z,218.50
2019-02-23T22:48:00.555Z,166.67
2019-02-23T22:50:33.093Z,158.90
2019-02-23T22:53:05.171Z,158.70
2019-02-23T22:55:37.101Z,114.20
2019-02-23T22:58:07.827Z,92.77
2019-02-23T23:00:38.775Z,72.30
2019-02-23T23:03:10.311Z,59.07
2019-02-23T23:05:41.694Z,59.70
2019-02-23T23:08:13.966Z,61.33
2019-02-23T23:10:44.245Z,61.10
2019-02-23T23:13:16.420Z,65.43
2019-02-23T23:15:50.068Z,75.22
2019-02-23T23:18:20.249Z,55.23
2019-02-23T23:20:50.525Z,70.03
2019-02-23T23:23:21.331Z,79.67
2019-02-23T23:25:52.226Z,108.47
2019-02-23T23:28:23.574Z,98.07
2019-02-23T23:33:31.021Z,87.08
2019-02-23T23:38:37.242Z,83.87
2019-02-23T23:41:08.893Z,81.75
2019-02-23T23:43:41.593Z,77.77
2019-02-23T23:46:11.894Z,82.60
2019-02-23T23:48:44.716Z,79.93
2019-02-23T23:51:16.295Z,84.28
2019-02-23T23:53:47.642Z,88.97
2019-02-23T23:56:20.650Z,95.73
2019-02-23T23:58:51.069Z,91.60
